Time;durP1;ratioP1;P1;durP2;ratioP2;P2;SDS_P1;SDS_P2;PMS_P1;PMS_P2;Temp;Humidity;BMP_temperature;BMP_pressure;BME280_temperature;BME280_humidity;BME280_pressure;Samples;Min_cycle;Max_cycle;Signal;HPM_P1;HPM_P2
2023/06/05 00:01:26;;;;;;;;;;;23.70;43.00;;;;;;5072801;28;19908;-55
2023/06/05 00:03:53;;;;;;;;;;;23.70;43.00;;;;;;5066855;28;19974;-54
2023/06/05 00:06:18;;;;;;;;;;;23.70;43.10;;;;;;5050878;28;19913;-54
2023/06/05 00:08:44;;;;;;;;;;;23.70;43.20;;;;;;5058279;28;19919;-55
2023/06/05 00:11:09;;;;;;;;;;;23.70;43.10;;;;;;5064911;28;19913;-55
2023/06/05 00:13:35;;;;;;;;;;;23.70;43.20;;;;;;5052079;28;19909;-55
2023/06/05 00:16:02;;;;;;;;;;;23.70;43.20;;;;;;5056914;28;19935;-56
2023/06/05 00:18:29;;;;;;;;;;;23.60;43.00;;;;;;5072394;28;19916;-55
2023/06/05 00:20:55;;;;;;;;;;;23.60;43.10;;;;;;5062442;28;20368;-55
2023/06/05 00:23:20;;;;;;;;;;;23.60;43.10;;;;;;5052084;28;19916;-55
2023/06/05 00:25:45;;;;;;;;;;;23.60;43.10;;;;;;5089675;28;19927;-55
2023/06/05 00:28:11;;;;;;;;;;;23.60;43.20;;;;;;5060493;28;19913;-55
2023/06/05 00:30:37;;;;;;;;;;;23.60;43.10;;;;;;5056113;28;20062;-55
2023/06/05 00:33:02;;;;;;;;;;;23.60;43.20;;;;;;5069270;28;19924;-56
2023/06/05 00:35:27;;;;;;;;;;;23.60;43.30;;;;;;5067075;28;19913;-55
2023/06/05 00:37:53;;;;;;;;;;;23.50;43.20;;;;;;5070505;28;19962;-55
2023/06/05 00:40:18;;;;;;;;;;;23.50;43.10;;;;;;5073183;28;19970;-55
2023/06/05 00:42:44;;;;;;;;;;;23.50;43.40;;;;;;5059240;28;19921;-54
2023/06/05 00:45:09;;;;;;;;;;;23.50;43.10;;;;;;5103021;28;20368;-55
2023/06/05 00:47:35;;;;;;;;;;;23.50;43.10;;;;;;5057985;28;20276;-55
2023/06/05 00:50:00;;;;;;;;;;;23.50;43.20;;;;;;5067503;28;19956;-55
2023/06/05 00:52:29;;;;;;;;;;;23.50;43.20;;;;;;5063085;28;19917;-55
2023/06/05 00:54:54;;;;;;;;;;;23.50;43.40;;;;;;5067745;28;19913;-55
2023/06/05 00:57:20;;;;;;;;;;;23.50;43.20;;;;;;5062177;28;19912;-55
2023/06/05 00:59:45;;;;;;;;;;;23.50;43.30;;;;;;5071483;28;20012;-55
2023/06/05 01:02:14;;;;;;;;;;;23.50;43.30;;;;;;5060803;28;19920;-55
2023/06/05 01:04:43;;;;;;;;;;;23.50;43.40;;;;;;5066580;28;19961;-55
2023/06/05 01:07:14;;;;;;;;;;;23.50;43.40;;;;;;5073441;28;19970;-55
2023/06/05 01:09:40;;;;;;;;;;;23.50;43.40;;;;;;5075351;28;20035;-55
2023/06/05 01:12:14;;;;;;;;;;;23.50;43.30;;;;;;5073279;28;19912;-55
2023/06/05 01:14:40;;;;;;;;;;;23.50;43.40;;;;;;5070958;28;19913;-55
2023/06/05 01:17:08;;;;;;;;;;;23.50;43.40;;;;;;5061463;28;19952;-55
2023/06/05 01:19:33;;;;;;;;;;;23.50;43.40;;;;;;5072570;28;19916;-55
2023/06/05 01:21:59;;;;;;;;;;;23.50;43.50;;;;;;5055944;28;19913;-55
2023/06/05 01:24:25;;;;;;;;;;;23.40;44.00;;;;;;5073209;28;19954;-54
2023/06/05 01:27:07;;;;;;;;;;;23.50;44.20;;;;;;5063991;28;19920;-55
2023/06/05 01:29:48;;;;;;;;;;;23.40;43.50;;;;;;5068496;28;19922;-55
2023/06/05 01:32:19;;;;;;;;;;;23.40;43.50;;;;;;5085361;28;19920;-55
2023/06/05 01:34:44;;;;;;;;;;;23.40;43.50;;;;;;5093685;28;20008;-54
2023/06/05 01:37:14;;;;;;;;;;;23.40;43.50;;;;;;5067832;28;20010;-55
2023/06/05 01:39:40;;;;;;;;;;;23.40;43.50;;;;;;5068814;28;19912;-55
2023/06/05 01:42:05;;;;;;;;;;;23.40;43.50;;;;;;5074584;28;19909;-55
2023/06/05 01:44:31;;;;;;;;;;;23.40;43.50;;;;;;5073707;28;19912;-55
2023/06/05 01:46:56;;;;;;;;;;;23.40;43.60;;;;;;5074717;28;19915;-55
2023/06/05 01:49:22;;;;;;;;;;;23.40;43.50;;;;;;5073737;28;19919;-55
2023/06/05 01:51:48;;;;;;;;;;;23.40;43.50;;;;;;5074580;28;19916;-55
2023/06/05 01:54:15;;;;;;;;;;;23.40;43.50;;;;;;5063754;28;20011;-56
2023/06/05 01:56:43;;;;;;;;;;;23.40;43.50;;;;;;5057319;28;19919;-55
2023/06/05 01:59:08;;;;;;;;;;;23.40;43.50;;;;;;5054507;28;19916;-55
2023/06/05 02:01:34;;;;;;;;;;;23.40;43.60;;;;;;5065115;28;19912;-55
2023/06/05 02:04:04;;;;;;;;;;;23.40;43.50;;;;;;5074260;28;19914;-54
2023/06/05 02:06:42;;;;;;;;;;;23.40;43.50;;;;;;5072146;28;19913;-55
2023/06/05 02:09:10;;;;;;;;;;;23.40;43.50;;;;;;5080848;28;19917;-55
2023/06/05 02:11:37;;;;;;;;;;;23.40;43.50;;;;;;5061393;28;19909;-54
2023/06/05 02:14:03;;;;;;;;;;;23.40;43.60;;;;;;5054164;28;19921;-55
2023/06/05 02:16:28;;;;;;;;;;;23.30;43.50;;;;;;5057405;28;20436;-54
2023/06/05 02:18:57;;;;;;;;;;;23.30;43.50;;;;;;5084435;28;19947;-54
2023/06/05 02:21:22;;;;;;;;;;;23.30;43.50;;;;;;5089359;28;20432;-55
2023/06/05 02:23:49;;;;;;;;;;;23.30;43.50;;;;;;5060085;28;20004;-54
2023/06/05 02:26:17;;;;;;;;;;;23.30;43.50;;;;;;5067335;28;20356;-54
2023/06/05 02:28:43;;;;;;;;;;;23.30;43.50;;;;;;5060415;28;19970;-55
2023/06/05 02:31:10;;;;;;;;;;;23.30;43.60;;;;;;5064862;28;19999;-55
2023/06/05 02:33:35;;;;;;;;;;;23.20;43.50;;;;;;5065240;28;19992;-54
2023/06/05 02:36:01;;;;;;;;;;;23.20;43.50;;;;;;5071528;28;20006;-55
2023/06/05 02:38:28;;;;;;;;;;;23.20;43.60;;;;;;5069192;28;19912;-55
2023/06/05 02:40:54;;;;;;;;;;;23.20;43.60;;;;;;5052774;28;19920;-54
2023/06/05 02:43:21;;;;;;;;;;;23.20;43.60;;;;;;5053499;28;19921;-55
2023/06/05 02:45:47;;;;;;;;;;;23.20;43.60;;;;;;5062116;28;19960;-54
2023/06/05 02:48:12;;;;;;;;;;;23.20;43.70;;;;;;5059410;28;19956;-55
2023/06/05 02:50:38;;;;;;;;;;;23.20;43.70;;;;;;5055978;28;20031;-54
2023/06/05 02:53:03;;;;;;;;;;;23.10;43.60;;;;;;5063885;28;19919;-55
2023/06/05 02:55:29;;;;;;;;;;;23.10;43.60;;;;;;5065943;28;19920;-54
2023/06/05 02:57:57;;;;;;;;;;;23.20;43.70;;;;;;5066578;28;20400;-54
2023/06/05 03:00:22;;;;;;;;;;;23.10;43.70;;;;;;5085949;28;20385;-55
2023/06/05 03:02:48;;;;;;;;;;;23.10;43.60;;;;;;5059138;28;19920;-55
2023/06/05 03:05:14;;;;;;;;;;;23.10;43.60;;;;;;5065103;28;20291;-55
2023/06/05 03:07:40;;;;;;;;;;;23.10;43.60;;;;;;5099300;28;19959;-55
2023/06/05 03:10:06;;;;;;;;;;;23.10;43.70;;;;;;5055084;28;19983;-55
2023/06/05 03:12:32;;;;;;;;;;;23.10;43.70;;;;;;5058960;28;19916;-55
2023/06/05 03:14:57;;;;;;;;;;;23.10;43.80;;;;;;5068105;28;19921;-55
2023/06/05 03:17:24;;;;;;;;;;;23.10;43.80;;;;;;5067496;28;19912;-55
2023/06/05 03:19:50;;;;;;;;;;;23.10;43.80;;;;;;5069669;28;19956;-55
2023/06/05 03:22:16;;;;;;;;;;;23.10;43.80;;;;;;5066255;28;19920;-55
2023/06/05 03:24:42;;;;;;;;;;;23.10;43.80;;;;;;5056246;28;20011;-55
2023/06/05 03:27:07;;;;;;;;;;;23.10;43.90;;;;;;5065052;28;19999;-55
2023/06/05 03:29:33;;;;;;;;;;;23.00;43.70;;;;;;5063935;28;20341;-55
2023/06/05 03:31:58;;;;;;;;;;;23.00;43.80;;;;;;5068028;28;19920;-55
2023/06/05 03:34:25;;;;;;;;;;;23.00;43.80;;;;;;5072368;28;19919;-54
2023/06/05 03:36:51;;;;;;;;;;;23.00;43.70;;;;;;5080588;28;19912;-56
2023/06/05 03:39:17;;;;;;;;;;;23.00;43.80;;;;;;5069676;28;19924;-55
2023/06/05 03:41:42;;;;;;;;;;;23.00;43.80;;;;;;5065824;28;19916;-55
2023/06/05 03:44:08;;;;;;;;;;;23.00;43.80;;;;;;5085895;28;19920;-55
2023/06/05 03:46:35;;;;;;;;;;;23.00;43.80;;;;;;5067588;28;19917;-55
2023/06/05 03:49:05;;;;;;;;;;;23.00;43.90;;;;;;5071301;28;19916;-55
2023/06/05 03:51:30;;;;;;;;;;;23.00;43.90;;;;;;5066947;28;19916;-55
2023/06/05 03:53:59;;;;;;;;;;;23.00;44.00;;;;;;5063777;28;20395;-55
2023/06/05 03:56:28;;;;;;;;;;;22.90;43.80;;;;;;5066599;28;19973;-55
2023/06/05 03:58:54;;;;;;;;;;;22.90;43.90;;;;;;5071409;28;20290;-55
2023/06/05 04:01:20;;;;;;;;;;;23.00;44.00;;;;;;5075086;28;19917;-55
2023/06/05 04:03:46;;;;;;;;;;;22.90;43.80;;;;;;5058733;28;20019;-55
2023/06/05 04:06:11;;;;;;;;;;;22.90;43.90;;;;;;5063500;28;19930;-55
2023/06/05 04:08:37;;;;;;;;;;;22.90;43.90;;;;;;5064974;28;19952;-55
2023/06/05 04:11:03;;;;;;;;;;;23.00;44.00;;;;;;5056285;28;20391;-55
2023/06/05 04:13:29;;;;;;;;;;;22.90;43.90;;;;;;5056192;28;19917;-54
2023/06/05 04:15:55;;;;;;;;;;;22.90;43.90;;;;;;5068041;28;20578;-55
2023/06/05 04:18:20;;;;;;;;;;;23.00;43.90;;;;;;5073332;28;19917;-55
2023/06/05 04:20:45;;;;;;;;;;;23.00;43.90;;;;;;5070202;28;19966;-55
2023/06/05 04:23:11;;;;;;;;;;;23.00;43.80;;;;;;5073918;28;19920;-55
2023/06/05 04:25:36;;;;;;;;;;;23.00;43.80;;;;;;5071551;28;20334;-55
2023/06/05 04:28:03;;;;;;;;;;;23.00;43.80;;;;;;5074053;28;20262;-55
2023/06/05 04:30:29;;;;;;;;;;;23.00;43.90;;;;;;5064881;28;19913;-55
2023/06/05 04:32:55;;;;;;;;;;;23.00;43.80;;;;;;5065535;28;19920;-55
2023/06/05 04:35:21;;;;;;;;;;;23.00;43.80;;;;;;5068979;28;19920;-55
2023/06/05 04:37:46;;;;;;;;;;;23.00;43.80;;;;;;5055868;28;19920;-55
2023/06/05 04:40:12;;;;;;;;;;;23.00;43.80;;;;;;5091358;28;19927;-55
2023/06/05 04:42:37;;;;;;;;;;;23.00;43.80;;;;;;5071864;28;20269;-54
2023/06/05 04:45:04;;;;;;;;;;;22.90;43.80;;;;;;5068983;28;19974;-55
2023/06/05 04:47:30;;;;;;;;;;;22.90;43.80;;;;;;5063481;28;19959;-55
2023/06/05 04:49:58;;;;;;;;;;;22.90;43.90;;;;;;5070837;28;20357;-55
2023/06/05 04:52:24;;;;;;;;;;;22.90;44.00;;;;;;5071271;28;19913;-54
2023/06/05 04:54:49;;;;;;;;;;;22.90;44.00;;;;;;5069972;28;19920;-55
2023/06/05 04:57:16;;;;;;;;;;;22.90;44.00;;;;;;5089941;28;19913;-55
2023/06/05 04:59:42;;;;;;;;;;;22.90;44.00;;;;;;5068895;28;19913;-55
2023/06/05 05:02:08;;;;;;;;;;;22.90;44.00;;;;;;5069790;28;19912;-55
2023/06/05 05:04:33;;;;;;;;;;;22.80;43.90;;;;;;5060288;28;19917;-55
2023/06/05 05:07:01;;;;;;;;;;;22.90;44.00;;;;;;5067344;28;19912;-55
2023/06/05 05:09:26;;;;;;;;;;;22.90;44.10;;;;;;5067348;28;19912;-55
2023/06/05 05:11:52;;;;;;;;;;;22.90;44.00;;;;;;5063673;28;19931;-55
2023/06/05 05:14:17;;;;;;;;;;;22.90;44.10;;;;;;5068601;28;19912;-55
2023/06/05 05:16:43;;;;;;;;;;;22.90;44.10;;;;;;5086770;28;19917;-54
2023/06/05 05:19:08;;;;;;;;;;;22.90;44.10;;;;;;5070955;28;20396;-55
2023/06/05 05:21:35;;;;;;;;;;;22.90;44.10;;;;;;5072117;28;19916;-54
2023/06/05 05:24:00;;;;;;;;;;;22.90;44.10;;;;;;5076551;28;19917;-55
2023/06/05 05:26:26;;;;;;;;;;;22.90;44.20;;;;;;5074156;28;20392;-55
2023/06/05 05:28:51;;;;;;;;;;;22.90;44.20;;;;;;5062974;28;20374;-55
2023/06/05 05:31:17;;;;;;;;;;;22.90;44.30;;;;;;5067753;28;19935;-54
2023/06/05 05:33:42;;;;;;;;;;;22.90;44.90;;;;;;5061102;28;19917;-55
2023/06/05 05:36:08;;;;;;;;;;;22.90;44.20;;;;;;5058475;28;19982;-54
2023/06/05 05:38:33;;;;;;;;;;;22.80;44.20;;;;;;5062127;28;19918;-54
2023/06/05 05:40:59;;;;;;;;;;;22.90;44.30;;;;;;5073817;28;19995;-55
2023/06/05 05:43:25;;;;;;;;;;;22.80;44.40;;;;;;5067758;28;19929;-54
2023/06/05 05:45:51;;;;;;;;;;;22.90;44.30;;;;;;5070909;28;19921;-55
2023/06/05 05:48:17;;;;;;;;;;;22.90;44.30;;;;;;5074573;28;20418;-55
2023/06/05 05:50:42;;;;;;;;;;;22.90;44.30;;;;;;5074111;28;19930;-55
2023/06/05 05:53:08;;;;;;;;;;;22.90;44.30;;;;;;5056089;28;20413;-56
2023/06/05 05:55:33;;;;;;;;;;;22.90;44.20;;;;;;5089045;28;20464;-55
2023/06/05 05:57:59;;;;;;;;;;;23.00;44.40;;;;;;5074468;28;19916;-55
2023/06/05 06:00:24;;;;;;;;;;;23.00;44.30;;;;;;5072688;28;19915;-56
2023/06/05 06:02:51;;;;;;;;;;;23.00;44.40;;;;;;5069416;28;19985;-55
2023/06/05 06:05:17;;;;;;;;;;;23.00;44.30;;;;;;5073758;28;19919;-55
2023/06/05 06:07:42;;;;;;;;;;;23.00;44.40;;;;;;5073349;28;19909;-55
2023/06/05 06:10:08;;;;;;;;;;;23.00;44.40;;;;;;5061024;28;19920;-56
2023/06/05 06:12:33;;;;;;;;;;;23.00;44.50;;;;;;5062154;28;20326;-55
2023/06/05 06:14:59;;;;;;;;;;;23.00;44.50;;;;;;5086738;28;20430;-55
2023/06/05 06:17:25;;;;;;;;;;;23.00;44.50;;;;;;5101979;28;20486;-56
2023/06/05 06:19:51;;;;;;;;;;;23.00;44.40;;;;;;5096135;28;19913;-55
2023/06/05 06:22:16;;;;;;;;;;;23.00;44.40;;;;;;5074033;28;19914;-56
2023/06/05 06:24:42;;;;;;;;;;;23.00;44.50;;;;;;5060509;28;19920;-56
2023/06/05 06:27:12;;;;;;;;;;;23.00;44.60;;;;;;5057648;28;19913;-55
2023/06/05 06:29:47;;;;;;;;;;;23.00;44.60;;;;;;5087035;27;19927;-55
2023/06/05 06:32:13;;;;;;;;;;;23.00;44.70;;;;;;5057985;28;20007;-55
2023/06/05 06:34:38;;;;;;;;;;;23.00;44.90;;;;;;5060535;28;19912;-55
2023/06/05 06:37:04;;;;;;;;;;;23.00;44.70;;;;;;5090777;28;19917;-55
2023/06/05 06:39:29;;;;;;;;;;;23.00;44.50;;;;;;5059635;28;19912;-55
2023/06/05 06:41:55;;;;;;;;;;;23.10;44.70;;;;;;5071719;28;19966;-55
2023/06/05 06:44:21;;;;;;;;;;;23.10;44.80;;;;;;5059410;28;20486;-55
2023/06/05 06:46:47;;;;;;;;;;;23.10;44.80;;;;;;5065994;28;19916;-56
2023/06/05 06:49:13;;;;;;;;;;;23.10;44.70;;;;;;5063529;28;19928;-55
2023/06/05 06:51:38;;;;;;;;;;;23.10;44.80;;;;;;5058221;28;19916;-55
2023/06/05 06:54:04;;;;;;;;;;;23.10;44.80;;;;;;5062117;28;19956;-55
2023/06/05 06:56:29;;;;;;;;;;;23.10;44.80;;;;;;5059597;28;20314;-54
2023/06/05 06:58:55;;;;;;;;;;;23.10;44.80;;;;;;5064443;28;20065;-55
2023/06/05 07:01:21;;;;;;;;;;;23.10;44.70;;;;;;5068544;28;19913;-55
2023/06/05 07:03:46;;;;;;;;;;;23.10;45.00;;;;;;5069056;28;19919;-55
2023/06/05 07:06:12;;;;;;;;;;;23.10;44.80;;;;;;5056735;28;19921;-55
2023/06/05 07:08:38;;;;;;;;;;;23.10;45.00;;;;;;5065328;28;19919;-55
2023/06/05 07:11:03;;;;;;;;;;;23.10;45.00;;;;;;5056403;28;19916;-55
2023/06/05 07:13:29;;;;;;;;;;;23.10;45.10;;;;;;5068571;28;19952;-54
2023/06/05 07:15:55;;;;;;;;;;;23.20;45.00;;;;;;5067209;28;19913;-54
2023/06/05 07:18:20;;;;;;;;;;;23.20;45.20;;;;;;5069544;28;19962;-54
2023/06/05 07:20:46;;;;;;;;;;;23.20;45.20;;;;;;5065323;28;19912;-54
2023/06/05 07:23:12;;;;;;;;;;;23.10;45.20;;;;;;5056563;28;19965;-54
2023/06/05 07:25:38;;;;;;;;;;;23.20;45.30;;;;;;5068676;28;19917;-55
2023/06/05 07:28:11;;;;;;;;;;;23.10;45.10;;;;;;5064448;28;20293;-55
2023/06/05 07:30:36;;;;;;;;;;;23.20;45.10;;;;;;5067296;28;19913;-54
2023/06/05 07:33:03;;;;;;;;;;;23.20;45.10;;;;;;5065116;28;19939;-55
2023/06/05 07:35:29;;;;;;;;;;;23.20;45.00;;;;;;5060661;28;19912;-54
2023/06/05 07:37:54;;;;;;;;;;;23.20;45.00;;;;;;5055352;28;20387;-56
2023/06/05 07:40:20;;;;;;;;;;;23.10;45.00;;;;;;5059048;28;20027;-54
2023/06/05 07:42:46;;;;;;;;;;;23.20;45.10;;;;;;5049461;28;20373;-54
2023/06/05 07:45:11;;;;;;;;;;;23.20;45.10;;;;;;5059346;28;19923;-54
2023/06/05 07:47:36;;;;;;;;;;;23.20;45.20;;;;;;5064705;28;19983;-54
2023/06/05 07:50:03;;;;;;;;;;;23.20;45.20;;;;;;5063746;28;19913;-54
2023/06/05 07:52:32;;;;;;;;;;;23.20;45.20;;;;;;5060271;28;19913;-54
2023/06/05 07:54:58;;;;;;;;;;;23.20;45.10;;;;;;5065742;28;19919;-54
2023/06/05 07:57:27;;;;;;;;;;;23.20;45.10;;;;;;5071096;28;19916;-54
2023/06/05 07:59:53;;;;;;;;;;;23.20;45.10;;;;;;5058526;28;20434;-54
2023/06/05 08:02:19;;;;;;;;;;;23.20;45.20;;;;;;5052422;28;20385;-55
2023/06/05 08:04:44;;;;;;;;;;;23.30;45.30;;;;;;5078407;28;19916;-55
2023/06/05 08:07:10;;;;;;;;;;;23.20;45.30;;;;;;5066304;28;19924;-54
2023/06/05 08:09:36;;;;;;;;;;;23.30;45.40;;;;;;5070231;28;20011;-55
2023/06/05 08:12:05;;;;;;;;;;;23.30;45.30;;;;;;5058780;28;20307;-55
2023/06/05 08:14:31;;;;;;;;;;;23.30;45.50;;;;;;5067917;28;20360;-54
2023/06/05 08:16:56;;;;;;;;;;;23.30;45.30;;;;;;5062945;28;19922;-54
2023/06/05 08:19:22;;;;;;;;;;;23.30;45.30;;;;;;5092160;28;19917;-55
2023/06/05 08:21:50;;;;;;;;;;;23.30;45.60;;;;;;5057737;28;19999;-55
2023/06/05 08:24:15;;;;;;;;;;;23.30;45.50;;;;;;5064847;28;19916;-54
2023/06/05 08:26:41;;;;;;;;;;;23.40;45.80;;;;;;5062849;28;19958;-54
2023/06/05 08:29:07;;;;;;;;;;;23.40;45.50;;;;;;5058368;28;19960;-54
2023/06/05 08:31:34;;;;;;;;;;;23.40;45.40;;;;;;5055480;28;19912;-54
2023/06/05 08:33:59;;;;;;;;;;;23.40;45.70;;;;;;5060064;28;19919;-54
2023/06/05 08:36:25;;;;;;;;;;;23.40;45.90;;;;;;5058970;28;20462;-54
2023/06/05 08:38:50;;;;;;;;;;;23.40;46.00;;;;;;5063273;28;19912;-55
2023/06/05 08:41:16;;;;;;;;;;;23.40;46.20;;;;;;5069309;28;19919;-54
2023/06/05 08:43:42;;;;;;;;;;;23.40;45.70;;;;;;5069650;28;19920;-55
2023/06/05 08:46:08;;;;;;;;;;;23.40;45.60;;;;;;5063871;28;20023;-54
2023/06/05 08:48:36;;;;;;;;;;;23.50;45.40;;;;;;5067915;28;20015;-54
2023/06/05 08:51:01;;;;;;;;;;;23.50;46.10;;;;;;5068765;28;20285;-54
2023/06/05 08:53:28;;;;;;;;;;;23.50;45.90;;;;;;5057997;28;19912;-55
2023/06/05 08:55:55;;;;;;;;;;;23.50;45.60;;;;;;5057933;28;20046;-54
2023/06/05 08:58:21;;;;;;;;;;;23.50;45.70;;;;;;5067621;28;20401;-54
2023/06/05 09:00:48;;;;;;;;;;;23.50;45.60;;;;;;5066055;28;19913;-54
2023/06/05 09:03:15;;;;;;;;;;;23.60;45.80;;;;;;5069161;28;19912;-55
2023/06/05 09:05:40;;;;;;;;;;;23.60;45.30;;;;;;5064109;28;19920;-55
2023/06/05 09:08:06;;;;;;;;;;;23.60;45.40;;;;;;5054039;28;19909;-54
2023/06/05 09:10:31;;;;;;;;;;;23.70;45.50;;;;;;5058635;28;20016;-55
2023/06/05 09:12:57;;;;;;;;;;;23.70;45.80;;;;;;5070489;28;19912;-54
2023/06/05 09:15:24;;;;;;;;;;;23.70;45.40;;;;;;5067759;28;19909;-55
2023/06/05 09:18:01;;;;;;;;;;;23.70;45.80;;;;;;5067445;28;19919;-55
2023/06/05 09:20:29;;;;;;;;;;;23.70;45.50;;;;;;5103543;28;19909;-54
2023/06/05 09:22:54;;;;;;;;;;;23.70;45.30;;;;;;5063416;28;20028;-55
2023/06/05 09:25:20;;;;;;;;;;;23.80;45.10;;;;;;5066818;28;20471;-55
2023/06/05 09:27:53;;;;;;;;;;;23.80;45.10;;;;;;5072200;28;19913;-56
2023/06/05 09:30:19;;;;;;;;;;;23.80;45.00;;;;;;5070547;28;19962;-55
2023/06/05 09:32:44;;;;;;;;;;;23.80;44.80;;;;;;5070259;28;19912;-54
2023/06/05 09:35:12;;;;;;;;;;;23.90;45.10;;;;;;5055990;28;19924;-55
2023/06/05 09:37:38;;;;;;;;;;;23.90;45.20;;;;;;5099340;28;19913;-54
2023/06/05 09:40:05;;;;;;;;;;;23.90;45.40;;;;;;5070696;28;19920;-54
2023/06/05 09:42:31;;;;;;;;;;;23.90;45.70;;;;;;5060124;28;20387;-54
2023/06/05 09:45:00;;;;;;;;;;;23.90;45.40;;;;;;5105377;28;20018;-54
2023/06/05 09:47:25;;;;;;;;;;;23.90;45.70;;;;;;5065946;28;20299;-55
2023/06/05 09:49:51;;;;;;;;;;;23.90;45.60;;;;;;5060881;28;19913;-54
2023/06/05 09:52:16;;;;;;;;;;;23.90;45.70;;;;;;5062190;28;20046;-54
2023/06/05 09:54:45;;;;;;;;;;;24.00;45.20;;;;;;5100246;27;19916;-54
2023/06/05 09:57:11;;;;;;;;;;;24.00;44.90;;;;;;5073370;28;19920;-55
2023/06/05 09:59:41;;;;;;;;;;;24.00;44.90;;;;;;5067584;28;19990;-54
2023/06/05 10:02:07;;;;;;;;;;;24.10;44.50;;;;;;5050962;28;20261;-55
2023/06/05 10:04:36;;;;;;;;;;;24.10;44.40;;;;;;5062757;28;19931;-55
2023/06/05 10:07:02;;;;;;;;;;;24.10;44.50;;;;;;5060932;28;20007;-54
2023/06/05 10:09:29;;;;;;;;;;;24.20;44.40;;;;;;5060801;28;19986;-54
2023/06/05 10:11:55;;;;;;;;;;;24.20;44.20;;;;;;5064113;28;19952;-54
2023/06/05 10:14:20;;;;;;;;;;;24.20;44.30;;;;;;5063963;28;19975;-55
2023/06/05 10:16:50;;;;;;;;;;;24.20;44.60;;;;;;5057930;28;19912;-55
2023/06/05 10:19:16;;;;;;;;;;;24.20;44.40;;;;;;5068385;28;19970;-54
2023/06/05 10:21:42;;;;;;;;;;;24.20;44.20;;;;;;5056287;28;20320;-55
2023/06/05 10:24:11;;;;;;;;;;;24.30;44.30;;;;;;5055815;28;20346;-55
2023/06/05 10:26:56;;;;;;;;;;;24.30;44.30;;;;;;5089127;28;19916;-54
2023/06/05 10:29:22;;;;;;;;;;;24.30;44.30;;;;;;5064534;28;19916;-54
2023/06/05 10:31:48;;;;;;;;;;;24.30;44.30;;;;;;5064139;28;19913;-54
2023/06/05 10:34:17;;;;;;;;;;;24.30;44.90;;;;;;5104491;28;20482;-55
2023/06/05 10:36:43;;;;;;;;;;;24.30;44.90;;;;;;5100568;28;19970;-55
2023/06/05 10:39:09;;;;;;;;;;;24.30;45.20;;;;;;5061986;28;19916;-54
2023/06/05 10:41:35;;;;;;;;;;;24.30;44.70;;;;;;5068674;28;19913;-54
2023/06/05 10:44:00;;;;;;;;;;;24.40;44.30;;;;;;5060916;28;20297;-55
2023/06/05 10:46:26;;;;;;;;;;;24.40;43.80;;;;;;5072589;28;19913;-54
2023/06/05 10:49:19;;;;;;;;;;;24.50;43.80;;;;;;5068087;28;19925;-54
2023/06/05 10:51:51;;;;;;;;;;;24.50;44.70;;;;;;5066223;28;19920;-54
2023/06/05 10:54:22;;;;;;;;;;;24.50;43.60;;;;;;5063293;28;19916;-55
2023/06/05 10:56:55;;;;;;;;;;;24.50;44.50;;;;;;5062424;28;20001;-54
2023/06/05 10:59:21;;;;;;;;;;;24.50;45.30;;;;;;5063622;28;19916;-54
2023/06/05 11:02:08;;;;;;;;;;;24.40;44.90;;;;;;5067645;28;19912;-54
2023/06/05 11:04:46;;;;;;;;;;;24.40;44.80;;;;;;5069646;28;20448;-54
2023/06/05 11:07:14;;;;;;;;;;;24.40;44.50;;;;;;5065813;28;19912;-54
2023/06/05 11:10:00;;;;;;;;;;;24.50;43.90;;;;;;5064050;28;19924;-54
2023/06/05 11:12:35;;;;;;;;;;;24.60;44.10;;;;;;5059811;28;20399;-55
2023/06/05 11:15:01;;;;;;;;;;;24.60;43.70;;;;;;5068718;28;19963;-55
2023/06/05 11:17:27;;;;;;;;;;;24.70;43.50;;;;;;5059624;28;19916;-54
2023/06/05 11:19:52;;;;;;;;;;;24.70;44.00;;;;;;5062099;28;19912;-54
2023/06/05 11:22:18;;;;;;;;;;;24.70;43.40;;;;;;5062174;28;21649;-54
2023/06/05 11:24:43;;;;;;;;;;;24.80;43.60;;;;;;5055910;28;19996;-54
2023/06/05 11:27:29;;;;;;;;;;;24.80;44.00;;;;;;5066796;28;19936;-54
2023/06/05 11:29:55;;;;;;;;;;;24.80;43.40;;;;;;5071502;28;20265;-55
2023/06/05 11:32:20;;;;;;;;;;;24.80;43.20;;;;;;5066259;28;20344;-55
2023/06/05 11:34:47;;;;;;;;;;;24.80;43.00;;;;;;5102296;28;20377;-54
2023/06/05 11:37:17;;;;;;;;;;;24.90;43.70;;;;;;5070520;28;20015;-54
2023/06/05 11:39:43;;;;;;;;;;;24.90;43.10;;;;;;5063013;28;19960;-54
2023/06/05 11:42:09;;;;;;;;;;;24.90;43.70;;;;;;5065379;28;19951;-54
2023/06/05 11:44:35;;;;;;;;;;;25.00;43.10;;;;;;5050869;28;19931;-54
2023/06/05 11:47:01;;;;;;;;;;;24.90;43.90;;;;;;5073372;28;19917;-55
2023/06/05 11:49:27;;;;;;;;;;;25.00;42.50;;;;;;5059978;28;19916;-54
2023/06/05 11:51:53;;;;;;;;;;;25.10;43.30;;;;;;5055703;28;19920;-54
2023/06/05 11:54:25;;;;;;;;;;;25.00;43.80;;;;;;5059428;28;19913;-54
2023/06/05 11:56:55;;;;;;;;;;;24.90;43.50;;;;;;5063654;28;20389;-54
2023/06/05 11:59:21;;;;;;;;;;;24.90;43.50;;;;;;5054678;28;19924;-54
2023/06/05 12:01:47;;;;;;;;;;;24.90;44.50;;;;;;5063173;28;19913;-55
2023/06/05 12:04:14;;;;;;;;;;;24.90;44.00;;;;;;5070536;28;19923;-54
2023/06/05 12:06:41;;;;;;;;;;;24.90;44.10;;;;;;5054556;28;19973;-55
2023/06/05 12:09:09;;;;;;;;;;;24.80;44.40;;;;;;5061574;28;19951;-54
2023/06/05 12:11:34;;;;;;;;;;;24.70;43.90;;;;;;5062799;28;19916;-54
2023/06/05 12:14:00;;;;;;;;;;;24.70;43.80;;;;;;5093882;28;19919;-54
2023/06/05 12:16:52;;;;;;;;;;;24.70;44.20;;;;;;5064009;28;20317;-54
2023/06/05 12:19:18;;;;;;;;;;;24.80;44.20;;;;;;5067893;28;20295;-54
2023/06/05 12:21:43;;;;;;;;;;;24.90;43.60;;;;;;5097361;28;20027;-54
2023/06/05 12:24:09;;;;;;;;;;;24.90;43.20;;;;;;5068463;28;19909;-54
2023/06/05 12:26:53;;;;;;;;;;;25.00;42.60;;;;;;5060609;28;20443;-54
2023/06/05 12:29:20;;;;;;;;;;;25.10;42.50;;;;;;5067456;28;19920;-54
2023/06/05 12:31:45;;;;;;;;;;;25.20;43.40;;;;;;5057654;28;20006;-54
2023/06/05 12:34:11;;;;;;;;;;;25.10;42.60;;;;;;5057698;28;20019;-53
2023/06/05 12:36:41;;;;;;;;;;;25.20;42.10;;;;;;5068613;28;20384;-53
2023/06/05 12:39:07;;;;;;;;;;;25.20;43.80;;;;;;5059344;28;19939;-54
2023/06/05 12:41:33;;;;;;;;;;;25.20;43.40;;;;;;5070573;28;20464;-54
2023/06/05 12:44:00;;;;;;;;;;;25.20;41.60;;;;;;5057387;28;20004;-53
2023/06/05 12:46:25;;;;;;;;;;;25.20;43.10;;;;;;5070749;28;19920;-53
2023/06/05 12:48:51;;;;;;;;;;;25.20;42.10;;;;;;5066553;28;19982;-54
2023/06/05 12:51:17;;;;;;;;;;;25.20;41.70;;;;;;5093636;28;19913;-54
2023/06/05 12:53:42;;;;;;;;;;;25.30;41.60;;;;;;5062426;28;19974;-53
2023/06/05 12:56:08;;;;;;;;;;;25.30;42.60;;;;;;5061490;28;19920;-53
2023/06/05 12:58:33;;;;;;;;;;;25.30;42.80;;;;;;5064481;28;19978;-54
2023/06/05 13:00:59;;;;;;;;;;;25.20;42.80;;;;;;5069913;28;19986;-53
2023/06/05 13:03:25;;;;;;;;;;;25.20;42.80;;;;;;5069617;28;19920;-54
2023/06/05 13:05:50;;;;;;;;;;;25.10;42.70;;;;;;5066753;28;19920;-54
2023/06/05 13:08:16;;;;;;;;;;;25.10;43.10;;;;;;5071628;28;19916;-54
2023/06/05 13:10:41;;;;;;;;;;;25.10;42.10;;;;;;5074786;28;19955;-54
2023/06/05 13:13:07;;;;;;;;;;;25.20;41.60;;;;;;5063351;28;19916;-53
2023/06/05 13:15:32;;;;;;;;;;;25.20;43.20;;;;;;5062632;28;19920;-54
2023/06/05 13:17:58;;;;;;;;;;;25.20;42.90;;;;;;5073722;28;19955;-54
2023/06/05 13:20:23;;;;;;;;;;;25.10;42.50;;;;;;5069991;28;19923;-53
2023/06/05 13:22:49;;;;;;;;;;;25.20;42.30;;;;;;5069796;28;20003;-53
2023/06/05 13:25:14;;;;;;;;;;;25.30;42.80;;;;;;5065673;28;19966;-54
2023/06/05 13:27:40;;;;;;;;;;;25.30;42.90;;;;;;5063842;28;19916;-54
2023/06/05 13:30:06;;;;;;;;;;;25.20;43.40;;;;;;5065142;28;19920;-54
2023/06/05 13:32:35;;;;;;;;;;;25.20;42.60;;;;;;5066659;28;19912;-53
2023/06/05 13:35:00;;;;;;;;;;;25.30;42.50;;;;;;5074214;28;19912;-54
2023/06/05 13:37:26;;;;;;;;;;;25.40;42.10;;;;;;5101838;28;19912;-53
2023/06/05 13:39:51;;;;;;;;;;;25.40;41.80;;;;;;5059533;28;19931;-53
2023/06/05 13:42:18;;;;;;;;;;;25.50;41.40;;;;;;5061852;28;19935;-54
2023/06/05 13:44:43;;;;;;;;;;;25.50;41.80;;;;;;5071663;28;20436;-54
2023/06/05 13:47:09;;;;;;;;;;;25.40;43.20;;;;;;5071389;28;20015;-53
2023/06/05 13:49:35;;;;;;;;;;;25.40;42.40;;;;;;5062180;28;19916;-53
2023/06/05 13:52:00;;;;;;;;;;;25.30;42.60;;;;;;5061062;28;20015;-53
2023/06/05 13:54:25;;;;;;;;;;;25.30;43.10;;;;;;5059203;28;20432;-52
2023/06/05 13:56:51;;;;;;;;;;;25.30;42.30;;;;;;5058418;28;20257;-53
2023/06/05 13:59:17;;;;;;;;;;;25.30;43.20;;;;;;5062026;28;19913;-53
2023/06/05 14:01:42;;;;;;;;;;;25.30;42.20;;;;;;5068108;28;20319;-53
2023/06/05 14:04:08;;;;;;;;;;;25.30;42.50;;;;;;5069759;28;20376;-53
2023/06/05 14:06:37;;;;;;;;;;;25.20;42.30;;;;;;5071768;28;19960;-53
2023/06/05 14:09:02;;;;;;;;;;;25.30;42.30;;;;;;5060738;28;19912;-54
2023/06/05 14:11:28;;;;;;;;;;;25.30;42.80;;;;;;5067932;28;19912;-53
2023/06/05 14:13:53;;;;;;;;;;;25.30;42.80;;;;;;5066924;28;19923;-53